sensor_id;sensor_type;location;lat;lon;timestamp;pressure;altitude;pressure_sealevel;temperature;humidity
35649;BME280;21768;48.562;13.414;2024-03-02T00:02:14;96378.94;;;8.91;74.61
35649;BME280;21768;48.562;13.414;2024-03-02T00:04:40;96369.75;;;8.92;74.62
35649;BME280;21768;48.562;13.414;2024-03-02T00:07:09;96367.31;;;8.93;74.61
35649;BME280;21768;48.562;13.414;2024-03-02T00:09:35;96369.75;;;8.92;74.51
35649;BME280;21768;48.562;13.414;2024-03-02T00:12:02;96369.69;;;8.90;74.68
35649;BME280;21768;48.562;13.414;2024-03-02T00:14:29;96368.88;;;8.91;74.79
35649;BME280;21768;48.562;13.414;2024-03-02T00:16:55;96368.97;;;8.93;74.73
35649;BME280;21768;48.562;13.414;2024-03-02T00:19:21;96368.97;;;8.93;74.74
35649;BME280;21768;48.562;13.414;2024-03-02T00:21:47;96370.63;;;8.92;74.72
35649;BME280;21768;48.562;13.414;2024-03-02T00:24:34;96375.91;;;8.97;74.67
35649;BME280;21768;48.562;13.414;2024-03-02T00:27:01;96378.41;;;8.97;74.46
35649;BME280;21768;48.562;13.414;2024-03-02T00:29:29;96381.81;;;8.97;74.57
35649;BME280;21768;48.562;13.414;2024-03-02T00:31:55;96380.06;;;8.96;74.47
35649;BME280;21768;48.562;13.414;2024-03-02T00:34:22;96378.25;;;8.94;74.29
35649;BME280;21768;48.562;13.414;2024-03-02T00:36:48;96388.09;;;8.89;74.46
35649;BME280;21768;48.562;13.414;2024-03-02T00:39:17;96377.09;;;8.87;74.39
35649;BME280;21768;48.562;13.414;2024-03-02T00:41:43;96379.59;;;8.87;74.35
35649;BME280;21768;48.562;13.414;2024-03-02T00:44:10;96380.19;;;8.83;74.59
35649;BME280;21768;48.562;13.414;2024-03-02T00:46:39;96373.44;;;8.82;74.61
35649;BME280;21768;48.562;13.414;2024-03-02T00:49:11;96380.19;;;8.83;74.37
35649;BME280;21768;48.562;13.414;2024-03-02T00:51:39;96379.34;;;8.82;74.34
35649;BME280;21768;48.562;13.414;2024-03-02T00:54:07;96380.13;;;8.81;74.13
35649;BME280;21768;48.562;13.414;2024-03-02T00:56:35;96382.47;;;8.78;74.21
35649;BME280;21768;48.562;13.414;2024-03-02T00:59:01;96384.72;;;8.74;74.43
35649;BME280;21768;48.562;13.414;2024-03-02T01:01:27;96390.34;;;8.70;74.44
35649;BME280;21768;48.562;13.414;2024-03-02T01:03:53;96379.25;;;8.66;74.68
35649;BME280;21768;48.562;13.414;2024-03-02T01:06:19;96380.94;;;8.66;74.63
35649;BME280;21768;48.562;13.414;2024-03-02T01:08:45;96382.50;;;8.64;74.75
35649;BME280;21768;48.562;13.414;2024-03-02T01:11:11;96376.44;;;8.60;74.72
35649;BME280;21768;48.562;13.414;2024-03-02T01:13:37;96387.19;;;8.58;74.77
35649;BME280;21768;48.562;13.414;2024-03-02T01:16:03;96377.63;;;8.52;74.92
35649;BME280;21768;48.562;13.414;2024-03-02T01:18:29;96375.91;;;8.51;74.82
35649;BME280;21768;48.562;13.414;2024-03-02T01:20:57;96383.34;;;8.49;74.84
35649;BME280;21768;48.562;13.414;2024-03-02T01:23:23;96373.13;;;8.46;75.40
35649;BME280;21768;48.562;13.414;2024-03-02T01:25:49;96379.72;;;8.44;75.25
35649;BME280;21768;48.562;13.414;2024-03-02T01:28:17;96377.03;;;8.41;75.16
35649;BME280;21768;48.562;13.414;2024-03-02T01:30:43;96380.41;;;8.42;75.23
35649;BME280;21768;48.562;13.414;2024-03-02T01:33:10;96372.81;;;8.40;75.27
35649;BME280;21768;48.562;13.414;2024-03-02T01:35:36;96373.50;;;8.38;75.17
35649;BME280;21768;48.562;13.414;2024-03-02T01:38:02;96367.94;;;8.43;75.02
35649;BME280;21768;48.562;13.414;2024-03-02T01:40:28;96368.28;;;8.49;74.94
35649;BME280;21768;48.562;13.414;2024-03-02T01:42:54;96365.50;;;8.45;74.87
35649;BME280;21768;48.562;13.414;2024-03-02T01:45:21;96361.16;;;8.42;75.16
35649;BME280;21768;48.562;13.414;2024-03-02T01:47:48;96367.78;;;8.40;75.09
35649;BME280;21768;48.562;13.414;2024-03-02T01:50:15;96359.44;;;8.41;74.97
35649;BME280;21768;48.562;13.414;2024-03-02T01:52:41;96364.31;;;8.38;74.76
35649;BME280;21768;48.562;13.414;2024-03-02T01:55:10;96365.88;;;8.36;74.90
35649;BME280;21768;48.562;13.414;2024-03-02T01:57:38;96358.25;;;8.35;74.91
35649;BME280;21768;48.562;13.414;2024-03-02T02:00:04;96359.91;;;8.34;74.96
35649;BME280;21768;48.562;13.414;2024-03-02T02:02:31;96352.25;;;8.33;75.07
35649;BME280;21768;48.562;13.414;2024-03-02T02:04:57;96361.53;;;8.34;75.02
35649;BME280;21768;48.562;13.414;2024-03-02T02:07:23;96352.16;;;8.31;75.15
35649;BME280;21768;48.562;13.414;2024-03-02T02:09:49;96348.00;;;8.32;75.06
35649;BME280;21768;48.562;13.414;2024-03-02T02:12:15;96346.25;;;8.31;75.03
35649;BME280;21768;48.562;13.414;2024-03-02T02:14:47;96346.06;;;8.28;75.07
35649;BME280;21768;48.562;13.414;2024-03-02T02:17:14;96351.09;;;8.28;75.39
35649;BME280;21768;48.562;13.414;2024-03-02T02:19:43;96333.69;;;8.31;75.06
35649;BME280;21768;48.562;13.414;2024-03-02T02:22:12;96337.06;;;8.31;75.21
35649;BME280;21768;48.562;13.414;2024-03-02T02:24:41;96333.44;;;8.26;75.13
35649;BME280;21768;48.562;13.414;2024-03-02T02:27:07;96335.84;;;8.25;75.29
35649;BME280;21768;48.562;13.414;2024-03-02T02:29:33;96331.34;;;8.19;75.36
35649;BME280;21768;48.562;13.414;2024-03-02T02:31:59;96328.59;;;8.14;75.51
35649;BME280;21768;48.562;13.414;2024-03-02T02:34:25;96326.88;;;8.13;75.50
35649;BME280;21768;48.562;13.414;2024-03-02T02:36:51;96323.41;;;8.11;75.60
35649;BME280;21768;48.562;13.414;2024-03-02T02:39:18;96321.31;;;8.04;75.48
35649;BME280;21768;48.562;13.414;2024-03-02T02:41:45;96326.66;;;7.96;75.44
35649;BME280;21768;48.562;13.414;2024-03-02T02:44:11;96320.78;;;7.95;75.59
35649;BME280;21768;48.562;13.414;2024-03-02T02:46:38;96329.81;;;7.92;75.46
35649;BME280;21768;48.562;13.414;2024-03-02T02:49:04;96323.06;;;7.91;75.67
35649;BME280;21768;48.562;13.414;2024-03-02T02:51:29;96311.28;;;7.90;75.63
35649;BME280;21768;48.562;13.414;2024-03-02T02:53:55;96321.03;;;7.85;75.51
35649;BME280;21768;48.562;13.414;2024-03-02T02:56:21;96315.84;;;7.82;75.75
35649;BME280;21768;48.562;13.414;2024-03-02T02:58:46;96319.72;;;7.77;75.74
35649;BME280;21768;48.562;13.414;2024-03-02T03:01:15;96325.25;;;7.71;75.98
35649;BME280;21768;48.562;13.414;2024-03-02T03:03:45;96322.66;;;7.70;75.90
35649;BME280;21768;48.562;13.414;2024-03-02T03:06:12;96325.84;;;7.67;75.87
35649;BME280;21768;48.562;13.414;2024-03-02T03:08:38;96328.34;;;7.67;75.76
35649;BME280;21768;48.562;13.414;2024-03-02T03:11:04;96326.13;;;7.72;75.78
35649;BME280;21768;48.562;13.414;2024-03-02T03:13:31;96325.06;;;7.68;75.75
35649;BME280;21768;48.562;13.414;2024-03-02T03:15:57;96324.94;;;7.65;75.96
35649;BME280;21768;48.562;13.414;2024-03-02T03:18:25;96333.03;;;7.61;76.14
35649;BME280;21768;48.562;13.414;2024-03-02T03:20:51;96322.91;;;7.60;76.26
35649;BME280;21768;48.562;13.414;2024-03-02T03:23:17;96333.22;;;7.64;76.43
35649;BME280;21768;48.562;13.414;2024-03-02T03:25:43;96331.81;;;7.69;76.27
35649;BME280;21768;48.562;13.414;2024-03-02T03:28:09;96317.91;;;7.74;76.33
35649;BME280;21768;48.562;13.414;2024-03-02T03:30:39;96317.41;;;7.80;76.23
35649;BME280;21768;48.562;13.414;2024-03-02T03:33:05;96319.72;;;7.77;76.50
35649;BME280;21768;48.562;13.414;2024-03-02T03:35:32;96322.75;;;7.71;76.63
35649;BME280;21768;48.562;13.414;2024-03-02T03:37:58;96322.75;;;7.71;76.68
35649;BME280;21768;48.562;13.414;2024-03-02T03:40:24;96318.69;;;7.73;76.70
35649;BME280;21768;48.562;13.414;2024-03-02T03:42:49;96310.56;;;7.77;76.67
35649;BME280;21768;48.562;13.414;2024-03-02T03:45:15;96312.28;;;7.78;76.56
35649;BME280;21768;48.562;13.414;2024-03-02T03:47:41;96319.03;;;7.79;76.61
35649;BME280;21768;48.562;13.414;2024-03-02T03:50:12;96322.25;;;7.77;76.64
35649;BME280;21768;48.562;13.414;2024-03-02T03:52:37;96316.44;;;7.78;76.80
35649;BME280;21768;48.562;13.414;2024-03-02T03:55:03;96323.09;;;7.77;76.74
35649;BME280;21768;48.562;13.414;2024-03-02T03:57:30;96317.31;;;7.78;76.87
35649;BME280;21768;48.562;13.414;2024-03-02T03:59:56;96314.03;;;7.79;76.81
35649;BME280;21768;48.562;13.414;2024-03-02T04:02:22;96323.47;;;7.83;76.80
35649;BME280;21768;48.562;13.414;2024-03-02T04:04:49;96320.97;;;7.83;76.74
35649;BME280;21768;48.562;13.414;2024-03-02T04:07:15;96320.09;;;7.83;76.47
35649;BME280;21768;48.562;13.414;2024-03-02T04:09:41;96323.47;;;7.83;76.68
35649;BME280;21768;48.562;13.414;2024-03-02T04:12:07;96326.84;;;7.84;76.64
35649;BME280;21768;48.562;13.414;2024-03-02T04:14:34;96327.72;;;7.84;76.64
35649;BME280;21768;48.562;13.414;2024-03-02T04:17:00;96332.81;;;7.86;76.57
35649;BME280;21768;48.562;13.414;2024-03-02T04:19:26;96336.19;;;7.87;76.54
35649;BME280;21768;48.562;13.414;2024-03-02T04:21:52;96326.25;;;7.88;76.32
35649;BME280;21768;48.562;13.414;2024-03-02T04:24:17;96332.81;;;7.86;76.49
35649;BME280;21768;48.562;13.414;2024-03-02T04:26:44;96324.94;;;7.80;76.60
35649;BME280;21768;48.562;13.414;2024-03-02T04:29:10;96327.34;;;7.78;76.54
35649;BME280;21768;48.562;13.414;2024-03-02T04:31:39;96327.34;;;7.78;76.59
35649;BME280;21768;48.562;13.414;2024-03-02T04:34:05;96334.19;;;7.81;76.54
35649;BME280;21768;48.562;13.414;2024-03-02T04:36:30;96339.13;;;7.79;76.60
35649;BME280;21768;48.562;13.414;2024-03-02T04:38:56;96334.97;;;7.80;76.49
35649;BME280;21768;48.562;13.414;2024-03-02T04:41:22;96338.94;;;7.76;76.42
35649;BME280;21768;48.562;13.414;2024-03-02T04:43:48;96339.91;;;7.78;76.27
35649;BME280;21768;48.562;13.414;2024-03-02T04:46:14;96344.66;;;7.74;76.26
35649;BME280;21768;48.562;13.414;2024-03-02T04:48:40;96353.13;;;7.76;76.23
35649;BME280;21768;48.562;13.414;2024-03-02T04:51:06;96349.94;;;7.78;76.16
35649;BME280;21768;48.562;13.414;2024-03-02T04:53:32;96350.91;;;7.80;76.06
35649;BME280;21768;48.562;13.414;2024-03-02T04:55:58;96350.50;;;7.88;75.87
35649;BME280;21768;48.562;13.414;2024-03-02T04:58:24;96357.16;;;7.87;75.79
35649;BME280;21768;48.562;13.414;2024-03-02T05:00:52;96351.34;;;7.88;75.81
35649;BME280;21768;48.562;13.414;2024-03-02T05:03:20;96345.72;;;7.92;75.66
35649;BME280;21768;48.562;13.414;2024-03-02T05:05:45;96354.91;;;7.92;75.62
35649;BME280;21768;48.562;13.414;2024-03-02T05:08:12;96358.97;;;7.90;75.74
35649;BME280;21768;48.562;13.414;2024-03-02T05:10:41;96363.22;;;7.91;75.61
35649;BME280;21768;48.562;13.414;2024-03-02T05:13:07;96364.16;;;7.93;75.50
35649;BME280;21768;48.562;13.414;2024-03-02T05:15:33;96371.69;;;7.93;75.47
35649;BME280;21768;48.562;13.414;2024-03-02T05:17:59;96365.09;;;7.95;75.53
35649;BME280;21768;48.562;13.414;2024-03-02T05:20:25;96367.63;;;7.95;75.16
35649;BME280;21768;48.562;13.414;2024-03-02T05:22:51;96361.63;;;7.93;75.05
35649;BME280;21768;48.562;13.414;2024-03-02T05:25:17;96353.34;;;7.94;74.96
35649;BME280;21768;48.562;13.414;2024-03-02T05:27:42;96353.34;;;7.94;74.70
35649;BME280;21768;48.562;13.414;2024-03-02T05:30:09;96366.66;;;7.93;74.45
35649;BME280;21768;48.562;13.414;2024-03-02T05:32:35;96365.78;;;7.92;74.39
35649;BME280;21768;48.562;13.414;2024-03-02T05:35:01;96370.31;;;7.83;74.33
35649;BME280;21768;48.562;13.414;2024-03-02T05:37:28;96372.63;;;7.80;74.41
35649;BME280;21768;48.562;13.414;2024-03-02T05:39:54;96370.72;;;7.76;74.36
35649;BME280;21768;48.562;13.414;2024-03-02T05:42:19;96369.47;;;7.69;74.27
35649;BME280;21768;48.562;13.414;2024-03-02T05:44:46;96375.28;;;7.68;74.34
35649;BME280;21768;48.562;13.414;2024-03-02T05:47:11;96377.00;;;7.69;74.35
35649;BME280;21768;48.562;13.414;2024-03-02T05:49:38;96371.03;;;7.67;74.34
35649;BME280;21768;48.562;13.414;2024-03-02T05:52:03;96379.38;;;7.66;74.16
35649;BME280;21768;48.562;13.414;2024-03-02T05:54:29;96389.47;;;7.68;74.36
35649;BME280;21768;48.562;13.414;2024-03-02T05:56:55;96384.53;;;7.69;74.19
35649;BME280;21768;48.562;13.414;2024-03-02T05:59:21;96380.56;;;7.73;74.21
35649;BME280;21768;48.562;13.414;2024-03-02T06:01:48;96384.72;;;7.72;74.08
35649;BME280;21768;48.562;13.414;2024-03-02T06:04:15;96391.66;;;7.76;74.05
35649;BME280;21768;48.562;13.414;2024-03-02T06:06:41;96397.56;;;7.77;74.03
35649;BME280;21768;48.562;13.414;2024-03-02T06:09:10;96399.38;;;7.79;74.07
35649;BME280;21768;48.562;13.414;2024-03-02T06:11:40;96400.06;;;7.77;73.97
35649;BME280;21768;48.562;13.414;2024-03-02T06:14:07;96401.88;;;7.79;74.04
35649;BME280;21768;48.562;13.414;2024-03-02T06:16:34;96396.28;;;7.83;73.87
35649;BME280;21768;48.562;13.414;2024-03-02T06:19:01;96399.75;;;7.85;73.90
35649;BME280;21768;48.562;13.414;2024-03-02T06:21:27;96405.53;;;7.84;73.71
35649;BME280;21768;48.562;13.414;2024-03-02T06:23:53;96399.66;;;7.84;73.84
35649;BME280;21768;48.562;13.414;2024-03-02T06:26:19;96406.50;;;7.87;73.76
35649;BME280;21768;48.562;13.414;2024-03-02T06:28:45;96412.56;;;7.90;73.66
35649;BME280;21768;48.562;13.414;2024-03-02T06:31:11;96412.66;;;7.92;73.68
35649;BME280;21768;48.562;13.414;2024-03-02T06:33:39;96417.06;;;7.96;73.47
35649;BME280;21768;48.562;13.414;2024-03-02T06:36:05;96412.03;;;7.96;73.44
35649;BME280;21768;48.562;13.414;2024-03-02T06:38:34;96411.34;;;7.98;73.60
35649;BME280;21768;48.562;13.414;2024-03-02T06:40:59;96409.91;;;8.02;73.73
35649;BME280;21768;48.562;13.414;2024-03-02T06:43:25;96403.31;;;8.04;73.71
35649;BME280;21768;48.562;13.414;2024-03-02T06:45:51;96402.81;;;8.09;73.57
35649;BME280;21768;48.562;13.414;2024-03-02T06:48:17;96402.31;;;8.15;73.57
35649;BME280;21768;48.562;13.414;2024-03-02T06:50:49;96403.25;;;8.17;73.94
35649;BME280;21768;48.562;13.414;2024-03-02T06:53:15;96410.34;;;8.24;73.69
35649;BME280;21768;48.562;13.414;2024-03-02T06:55:46;96401.16;;;8.25;73.62
35649;BME280;21768;48.562;13.414;2024-03-02T06:58:12;96414.09;;;8.31;73.33
35649;BME280;21768;48.562;13.414;2024-03-02T07:00:38;96418.56;;;8.35;73.11
35649;BME280;21768;48.562;13.414;2024-03-02T07:03:04;96427.91;;;8.37;73.04
35649;BME280;21768;48.562;13.414;2024-03-02T07:05:29;96434.22;;;8.45;73.21
35649;BME280;21768;48.562;13.414;2024-03-02T07:07:56;96436.75;;;8.45;73.04
35649;BME280;21768;48.562;13.414;2024-03-02T07:10:22;96437.69;;;8.47;72.95
35649;BME280;21768;48.562;13.414;2024-03-02T07:12:48;96444.91;;;8.56;72.85
35649;BME280;21768;48.562;13.414;2024-03-02T07:15:14;96447.13;;;8.66;72.76
35649;BME280;21768;48.562;13.414;2024-03-02T07:17:58;96451.66;;;8.72;72.44
35649;BME280;21768;48.562;13.414;2024-03-02T07:20:23;96454.25;;;8.73;72.60
35649;BME280;21768;48.562;13.414;2024-03-02T07:22:49;96441.59;;;8.72;72.48
35649;BME280;21768;48.562;13.414;2024-03-02T07:25:14;96459.19;;;8.72;72.34
35649;BME280;21768;48.562;13.414;2024-03-02T07:27:40;96460.16;;;8.74;72.58
35649;BME280;21768;48.562;13.414;2024-03-02T07:30:06;96464.66;;;8.79;72.35
35649;BME280;21768;48.562;13.414;2024-03-02T07:32:32;96472.13;;;8.78;72.09
35649;BME280;21768;48.562;13.414;2024-03-02T07:34:58;96470.56;;;8.80;72.14
35649;BME280;21768;48.562;13.414;2024-03-02T07:37:24;96472.56;;;8.85;71.89
35649;BME280;21768;48.562;13.414;2024-03-02T07:39:50;96475.94;;;8.86;71.90
35649;BME280;21768;48.562;13.414;2024-03-02T07:42:15;96486.78;;;8.85;72.01
35649;BME280;21768;48.562;13.414;2024-03-02T07:44:41;96494.66;;;8.91;71.94
35649;BME280;21768;48.562;13.414;2024-03-02T07:47:10;96496.38;;;8.92;71.73
35649;BME280;21768;48.562;13.414;2024-03-02T07:49:35;96494.59;;;8.90;71.83
35649;BME280;21768;48.562;13.414;2024-03-02T07:52:03;96496.47;;;8.94;71.43
35649;BME280;21768;48.562;13.414;2024-03-02T07:54:29;96495.00;;;8.97;71.36
35649;BME280;21768;48.562;13.414;2024-03-02T07:56:55;96499.78;;;9.07;71.32
35649;BME280;21768;48.562;13.414;2024-03-02T07:59:21;96497.13;;;9.20;71.22
35649;BME280;21768;48.562;13.414;2024-03-02T08:01:48;96501.91;;;9.31;71.06
35649;BME280;21768;48.562;13.414;2024-03-02T08:04:14;96499.09;;;9.41;70.90
35649;BME280;21768;48.562;13.414;2024-03-02T08:06:40;96489.38;;;9.47;70.59
35649;BME280;21768;48.562;13.414;2024-03-02T08:09:05;96495.78;;;9.57;70.37
35649;BME280;21768;48.562;13.414;2024-03-02T08:11:39;96498.75;;;9.66;70.26
35649;BME280;21768;48.562;13.414;2024-03-02T08:14:06;96500.22;;;9.77;70.34
35649;BME280;21768;48.562;13.414;2024-03-02T08:16:31;96501.88;;;9.93;69.69
35649;BME280;21768;48.562;13.414;2024-03-02T08:18:58;96495.91;;;10.07;69.62
35649;BME280;21768;48.562;13.414;2024-03-02T08:21:24;96494.22;;;10.22;69.29
35649;BME280;21768;48.562;13.414;2024-03-02T08:23:50;96501.47;;;10.32;68.98
35649;BME280;21768;48.562;13.414;2024-03-02T08:26:19;96502.41;;;10.34;69.15
35649;BME280;21768;48.562;13.414;2024-03-02T08:28:49;96507.81;;;10.42;68.57
35649;BME280;21768;48.562;13.414;2024-03-02T08:31:15;96508.38;;;10.52;68.04
35649;BME280;21768;48.562;13.414;2024-03-02T08:33:41;96508.84;;;10.62;67.76
35649;BME280;21768;48.562;13.414;2024-03-02T08:36:07;96513.53;;;10.72;67.48
35649;BME280;21768;48.562;13.414;2024-03-02T08:38:35;96501.56;;;10.84;67.60
35649;BME280;21768;48.562;13.414;2024-03-02T08:41:00;96493.06;;;11.00;66.46
35649;BME280;21768;48.562;13.414;2024-03-02T08:43:27;96492.41;;;11.21;66.08
35649;BME280;21768;48.562;13.414;2024-03-02T08:45:52;96494.81;;;11.54;65.61
35649;BME280;21768;48.562;13.414;2024-03-02T08:48:18;96491.84;;;11.80;64.33
35649;BME280;21768;48.562;13.414;2024-03-02T08:50:45;96486.19;;;11.68;63.40
35649;BME280;21768;48.562;13.414;2024-03-02T08:53:10;96485.09;;;11.63;63.28
35649;BME280;21768;48.562;13.414;2024-03-02T08:55:36;96481.59;;;11.59;63.36
35649;BME280;21768;48.562;13.414;2024-03-02T08:58:02;96482.78;;;11.68;63.52
35649;BME280;21768;48.562;13.414;2024-03-02T09:00:28;96485.84;;;11.78;63.52
35649;BME280;21768;48.562;13.414;2024-03-02T09:02:54;96481.47;;;11.93;63.23
35649;BME280;21768;48.562;13.414;2024-03-02T09:05:19;96481.63;;;12.16;62.74
35649;BME280;21768;48.562;13.414;2024-03-02T09:07:45;96472.16;;;12.50;62.15
35649;BME280;21768;48.562;13.414;2024-03-02T09:10:11;96472.78;;;12.66;61.04
35649;BME280;21768;48.562;13.414;2024-03-02T09:12:37;96476.16;;;12.45;60.76
35649;BME280;21768;48.562;13.414;2024-03-02T09:15:03;96471.16;;;12.47;61.30
35649;BME280;21768;48.562;13.414;2024-03-02T09:17:29;96476.38;;;12.71;60.84
35649;BME280;21768;48.562;13.414;2024-03-02T09:19:55;96477.50;;;12.98;60.22
35649;BME280;21768;48.562;13.414;2024-03-02T09:22:21;96474.16;;;12.99;59.68
35649;BME280;21768;48.562;13.414;2024-03-02T09:24:47;96476.66;;;13.18;59.77
35649;BME280;21768;48.562;13.414;2024-03-02T09:27:17;96484.56;;;13.26;59.45
35649;BME280;21768;48.562;13.414;2024-03-02T09:29:43;96470.09;;;13.44;58.88
35649;BME280;21768;48.562;13.414;2024-03-02T09:32:12;96467.16;;;13.56;57.98
35649;BME280;21768;48.562;13.414;2024-03-02T09:34:38;96468.19;;;14.06;56.55
35649;BME280;21768;48.562;13.414;2024-03-02T09:37:04;96455.75;;;14.86;54.86
35649;BME280;21768;48.562;13.414;2024-03-02T09:39:30;96453.56;;;15.22;53.95
35649;BME280;21768;48.562;13.414;2024-03-02T09:41:56;96454.88;;;15.65;53.30
35649;BME280;21768;48.562;13.414;2024-03-02T09:44:28;96440.94;;;16.41;51.07
35649;BME280;21768;48.562;13.414;2024-03-02T09:46:53;96446.91;;;17.79;48.01
35649;BME280;21768;48.562;13.414;2024-03-02T09:49:19;96437.47;;;19.65;44.76
35649;BME280;21768;48.562;13.414;2024-03-02T09:51:47;96425.78;;;21.53;41.55
35649;BME280;21768;48.562;13.414;2024-03-02T09:54:15;96437.44;;;22.60;39.82
35649;BME280;21768;48.562;13.414;2024-03-02T09:56:41;96444.41;;;23.13;38.09
35649;BME280;21768;48.562;13.414;2024-03-02T09:59:07;96440.94;;;23.87;36.85
35649;BME280;21768;48.562;13.414;2024-03-02T10:01:33;96428.44;;;24.90;33.99
35649;BME280;21768;48.562;13.414;2024-03-02T10:03:59;96431.13;;;25.83;33.46
35649;BME280;21768;48.562;13.414;2024-03-02T10:06:27;96432.75;;;25.93;32.50
35649;BME280;21768;48.562;13.414;2024-03-02T10:08:53;96434.56;;;25.85;31.49
35649;BME280;21768;48.562;13.414;2024-03-02T10:11:34;96429.56;;;25.68;32.48
35649;BME280;21768;48.562;13.414;2024-03-02T10:14:06;96426.31;;;26.26;31.12
35649;BME280;21768;48.562;13.414;2024-03-02T10:16:43;96426.28;;;26.31;30.33
35649;BME280;21768;48.562;13.414;2024-03-02T10:21:47;96426.38;;;23.39;34.29
35649;BME280;21768;48.562;13.414;2024-03-02T10:24:13;96422.94;;;22.88;35.27
35649;BME280;21768;48.562;13.414;2024-03-02T10:26:39;96425.53;;;23.14;34.13
35649;BME280;21768;48.562;13.414;2024-03-02T10:29:05;96430.69;;;23.13;33.99
35649;BME280;21768;48.562;13.414;2024-03-02T10:31:31;96423.81;;;23.15;35.34
35649;BME280;21768;48.562;13.414;2024-03-02T10:33:57;96414.34;;;22.82;34.49
35649;BME280;21768;48.562;13.414;2024-03-02T10:36:23;96411.75;;;22.77;35.30
35649;BME280;21768;48.562;13.414;2024-03-02T10:38:51;96399.81;;;22.94;34.67
35649;BME280;21768;48.562;13.414;2024-03-02T10:41:23;96391.19;;;23.30;34.79
35649;BME280;21768;48.562;13.414;2024-03-02T10:43:51;96386.69;;;24.21;33.71
35649;BME280;21768;48.562;13.414;2024-03-02T10:46:19;96388.38;;;24.28;33.41
35649;BME280;21768;48.562;13.414;2024-03-02T10:48:46;96392.31;;;24.87;31.79
35649;BME280;21768;48.562;13.414;2024-03-02T10:51:12;96380.31;;;24.80;31.61
35649;BME280;21768;48.562;13.414;2024-03-02T10:53:38;96382.41;;;24.17;32.61
35649;BME280;21768;48.562;13.414;2024-03-02T10:56:07;96385.22;;;22.89;34.54
35649;BME280;21768;48.562;13.414;2024-03-02T10:58:35;96381.66;;;22.30;35.43
35649;BME280;21768;48.562;13.414;2024-03-02T11:01:03;96381.72;;;22.55;35.11
35649;BME280;21768;48.562;13.414;2024-03-02T11:03:39;96380.06;;;22.83;34.01
35649;BME280;21768;48.562;13.414;2024-03-02T11:06:08;96373.97;;;22.41;34.98
35649;BME280;21768;48.562;13.414;2024-03-02T11:08:34;96376.59;;;22.67;34.55
35649;BME280;21768;48.562;13.414;2024-03-02T11:11:19;96374.03;;;22.68;34.78
35649;BME280;21768;48.562;13.414;2024-03-02T11:13:50;96367.16;;;23.47;33.88
35649;BME280;21768;48.562;13.414;2024-03-02T11:16:31;96353.50;;;25.02;32.71
35649;BME280;21768;48.562;13.414;2024-03-02T11:19:19;96351.72;;;25.96;30.10
35649;BME280;21768;48.562;13.414;2024-03-02T11:21:45;96356.28;;;26.45;29.69
35649;BME280;21768;48.562;13.414;2024-03-02T11:26:50;96344.16;;;25.77;30.73
35649;BME280;21768;48.562;13.414;2024-03-02T11:32:13;96327.88;;;25.72;31.30
35649;BME280;21768;48.562;13.414;2024-03-02T11:34:45;96325.91;;;25.91;30.83
35649;BME280;21768;48.562;13.414;2024-03-02T11:37:15;96322.50;;;25.89;30.84
35649;BME280;21768;48.562;13.414;2024-03-02T11:39:44;96319.38;;;25.63;31.65
35649;BME280;21768;48.562;13.414;2024-03-02T11:42:11;96320.84;;;25.82;30.07
35649;BME280;21768;48.562;13.414;2024-03-02T11:44:41;96307.13;;;25.77;29.96
35649;BME280;21768;48.562;13.414;2024-03-02T11:47:08;96301.25;;;25.61;30.33
35649;BME280;21768;48.562;13.414;2024-03-02T11:49:45;96300.16;;;25.02;31.42
35649;BME280;21768;48.562;13.414;2024-03-02T11:52:18;96300.97;;;25.09;31.24
35649;BME280;21768;48.562;13.414;2024-03-02T11:54:52;96296.06;;;26.32;29.37
35649;BME280;21768;48.562;13.414;2024-03-02T11:57:22;96292.34;;;27.50;27.40
35649;BME280;21768;48.562;13.414;2024-03-02T11:59:48;96287.84;;;27.62;28.09
35649;BME280;21768;48.562;13.414;2024-03-02T12:02:19;96286.81;;;27.71;27.77
35649;BME280;21768;48.562;13.414;2024-03-02T12:04:46;96280.63;;;28.17;26.23
35649;BME280;21768;48.562;13.414;2024-03-02T12:07:19;96283.78;;;28.68;26.72
35649;BME280;21768;48.562;13.414;2024-03-02T12:09:46;96281.06;;;28.72;26.39
35649;BME280;21768;48.562;13.414;2024-03-02T12:12:12;96269.34;;;28.56;26.23
35649;BME280;21768;48.562;13.414;2024-03-02T12:14:50;96269.97;;;27.90;26.57
35649;BME280;21768;48.562;13.414;2024-03-02T12:17:16;96273.59;;;26.37;28.66
35649;BME280;21768;48.562;13.414;2024-03-02T12:19:42;96259.78;;;24.98;29.97
35649;BME280;21768;48.562;13.414;2024-03-02T12:22:08;96262.31;;;23.79;32.84
35649;BME280;21768;48.562;13.414;2024-03-02T12:24:33;96263.44;;;22.82;34.01
35649;BME280;21768;48.562;13.414;2024-03-02T12:27:00;96270.28;;;22.13;34.69
35649;BME280;21768;48.562;13.414;2024-03-02T12:29:26;96265.88;;;21.82;35.65
35649;BME280;21768;48.562;13.414;2024-03-02T12:31:54;96270.94;;;21.60;36.17
35649;BME280;21768;48.562;13.414;2024-03-02T12:34:20;96265.56;;;21.13;36.39
35649;BME280;21768;48.562;13.414;2024-03-02T12:36:47;96258.69;;;21.00;37.04
35649;BME280;21768;48.562;13.414;2024-03-02T12:39:20;96258.56;;;20.85;37.68
35649;BME280;21768;48.562;13.414;2024-03-02T12:41:49;96246.56;;;20.76;38.32
35649;BME280;21768;48.562;13.414;2024-03-02T12:44:16;96249.72;;;20.43;38.61
35649;BME280;21768;48.562;13.414;2024-03-02T12:46:41;96248.56;;;20.11;39.29
35649;BME280;21768;48.562;13.414;2024-03-02T12:49:12;96240.56;;;19.77;39.54
35649;BME280;21768;48.562;13.414;2024-03-02T12:51:41;96240.38;;;19.62;40.35
35649;BME280;21768;48.562;13.414;2024-03-02T12:54:10;96233.44;;;19.50;40.14
35649;BME280;21768;48.562;13.414;2024-03-02T12:56:41;96240.09;;;19.39;39.73
35649;BME280;21768;48.562;13.414;2024-03-02T12:59:17;96227.31;;;19.39;40.16
35649;BME280;21768;48.562;13.414;2024-03-02T13:01:53;96227.53;;;19.57;40.26
35649;BME280;21768;48.562;13.414;2024-03-02T13:04:27;96228.50;;;19.67;39.85
35649;BME280;21768;48.562;13.414;2024-03-02T13:06:56;96221.81;;;19.81;40.05